Time;durP1;ratioP1;P1;durP2;ratioP2;P2;SDS_P1;SDS_P2;PMS_P1;PMS_P2;Temp;Humidity;BMP_temperature;BMP_pressure;BME280_temperature;BME280_humidity;BME280_pressure;Samples;Min_cycle;Max_cycle;Signal;HPM_P1;HPM_P2
2022/06/27 00:00:36;;;;;;;1999.90;999.90;;;;;;;24.07;46.15;94921.94;4988162;28;20030;-70
2022/06/27 00:03:02;;;;;;;1999.90;999.90;;;;;;;24.18;46.36;94934.69;4990021;28;20034;-70
2022/06/27 00:05:27;;;;;;;1999.90;999.90;;;;;;;24.17;46.18;94933.91;4995505;28;20034;-70
2022/06/27 00:07:53;;;;;;;1999.90;999.90;;;;;;;24.05;46.59;94924.25;5009385;28;20030;-70
2022/06/27 00:10:18;;;;;;;1999.90;999.90;;;;;;;23.91;46.56;94899.88;4989590;28;20368;-71
2022/06/27 00:12:43;;;;;;;1999.90;999.90;;;;;;;23.85;46.63;94899.53;4989809;28;20065;-70
2022/06/27 00:15:10;;;;;;;1999.90;999.90;;;;;;;23.94;46.96;94923.53;4989222;28;20050;-70
2022/06/27 00:17:35;;;;;;;1999.90;999.90;;;;;;;24.00;47.18;94921.94;4989819;28;20030;-71
2022/06/27 00:20:01;;;;;;;1999.90;999.90;;;;;;;23.87;47.22;94904.56;4989329;28;20033;-71
2022/06/27 00:22:27;;;;;;;1999.90;999.90;;;;;;;23.58;48.30;94906.56;5010250;28;20026;-71
2022/06/27 00:24:53;;;;;;;1999.90;999.90;;;;;;;23.70;47.69;94900.75;4994050;28;20072;-71
2022/06/27 00:27:19;;;;;;;1999.90;999.90;;;;;;;23.69;47.97;94917.41;4990949;28;20035;-70
2022/06/27 00:29:44;;;;;;;1999.90;999.90;;;;;;;23.63;48.08;94911.63;4989338;28;20080;-71
2022/06/27 00:32:09;;;;;;;1999.90;999.90;;;;;;;23.68;47.81;94922.06;4983660;28;20130;-70
2022/06/27 00:34:35;;;;;;;1999.90;999.90;;;;;;;23.67;48.03;94936.81;4990897;28;20078;-71
2022/06/27 00:37:00;;;;;;;1999.90;999.90;;;;;;;23.25;48.77;94889.59;5003160;28;20544;-70
2022/06/27 00:39:26;;;;;;;1999.90;999.90;;;;;;;23.08;48.24;94869.50;4988927;28;20549;-71
2022/06/27 00:41:51;;;;;;;1999.90;999.90;;;;;;;23.42;49.06;94941.50;4988864;28;20253;-70
2022/06/27 00:44:40;;;;;;;1999.90;999.90;;;;;;;23.43;48.68;94945.78;4988935;28;20057;-70
2022/06/27 00:47:08;;;;;;;1999.90;999.90;;;;;;;23.46;48.58;94958.56;4988654;28;20022;-70
2022/06/27 00:49:34;;;;;;;1999.90;999.90;;;;;;;23.38;49.19;94971.38;4984181;28;20023;-70
2022/06/27 00:52:03;;;;;;;1999.90;999.90;;;;;;;23.48;48.74;94969.81;5001135;28;20033;-70
2022/06/27 00:54:29;;;;;;;1999.90;999.90;;;;;;;23.60;48.50;94972.13;5001892;28;20026;-70
2022/06/27 00:56:55;;;;;;;1999.90;999.90;;;;;;;23.63;48.55;94971.34;4990331;28;20101;-71
2022/06/27 00:59:20;;;;;;;1999.90;999.90;;;;;;;23.66;48.68;94973.28;4989574;28;20034;-71
2022/06/27 01:01:45;;;;;;;1999.90;999.90;;;;;;;23.32;49.36;94964.78;4987974;28;20052;-70
2022/06/27 01:04:11;;;;;;;1999.90;999.90;;;;;;;23.54;49.08;94970.94;4989321;28;20026;-70
2022/06/27 01:06:36;;;;;;;1999.90;999.90;;;;;;;23.25;48.75;94914.03;4999216;28;20133;-70
2022/06/27 01:09:03;;;;;;;1999.90;999.90;;;;;;;23.62;48.43;94969.78;5000234;28;20018;-70
2022/06/27 01:11:29;;;;;;;1999.90;999.90;;;;;;;23.69;48.51;94986.06;4988317;28;20022;-70
2022/06/27 01:13:54;;;;;;;1999.90;999.90;;;;;;;23.65;48.45;94974.47;4988261;28;20528;-70
2022/06/27 01:16:20;;;;;;;1999.90;999.90;;;;;;;23.71;48.40;94980.28;4989382;28;20042;-70
2022/06/27 01:18:45;;;;;;;1999.90;999.90;;;;;;;23.54;48.54;94954.66;4988118;28;20027;-72
2022/06/27 01:21:20;;;;;;;1999.90;999.90;;;;;;;23.65;48.40;94970.97;4994486;28;20033;-70
2022/06/27 01:23:45;;;;;;;1999.90;999.90;;;;;;;23.54;48.43;94949.22;5002853;28;20027;-70
2022/06/27 01:26:11;;;;;;;1999.90;999.90;;;;;;;23.66;48.50;94967.09;4986922;28;20026;-70
2022/06/27 01:28:36;;;;;;;1999.90;999.90;;;;;;;23.56;48.89;94972.13;4989118;28;20172;-70
2022/06/27 01:31:02;;;;;;;1999.90;999.90;;;;;;;23.66;48.88;94978.72;4988271;28;20034;-70
2022/06/27 01:33:27;;;;;;;1999.90;999.90;;;;;;;23.74;48.72;94993.06;4987792;28;20026;-71
2022/06/27 01:36:41;;;;;;;1999.90;999.90;;;;;;;23.76;48.94;94983.38;4991607;28;20036;-70
2022/06/27 01:38:38;;;;;;;1999.90;999.90;;;;;;;23.68;48.83;94970.19;5006519;28;20030;-70
2022/06/27 01:41:03;;;;;;;1999.90;999.90;;;;;;;23.72;48.69;94993.44;4987870;28;20110;-70
2022/06/27 01:43:29;;;;;;;1999.90;999.90;;;;;;;23.72;49.18;94990.72;4991071;28;20046;-70
2022/06/27 01:45:54;;;;;;;1999.90;999.90;;;;;;;23.65;48.79;94973.66;4990977;28;20034;-70
2022/06/27 01:48:20;;;;;;;1999.90;999.90;;;;;;;23.54;49.11;94960.09;4992651;28;20054;-70
2022/06/27 01:50:49;;;;;;;1999.90;999.90;;;;;;;23.52;49.19;94965.16;4983552;28;20042;-70
2022/06/27 01:53:15;;;;;;;1999.90;999.90;;;;;;;23.51;49.35;94969.81;4993550;28;20022;-69
2022/06/27 01:55:40;;;;;;;1999.90;999.90;;;;;;;23.38;49.89;94989.59;4984749;28;20018;-69
2022/06/27 01:58:06;;;;;;;1999.90;999.90;;;;;;;23.42;50.28;94982.22;4993557;28;20022;-69
2022/06/27 02:00:31;;;;;;;1999.90;999.90;;;;;;;23.06;51.18;94995.81;4991501;28;20022;-70
2022/06/27 02:02:57;;;;;;;1999.90;999.90;;;;;;;22.74;52.40;95001.97;4992629;28;20030;-69
2022/06/27 02:05:22;;;;;;;1999.90;999.90;;;;;;;22.90;51.74;95003.56;4990129;28;20102;-70
2022/06/27 02:07:50;;;;;;;1999.90;999.90;;;;;;;23.09;50.95;94992.34;5008057;28;20160;-69
2022/06/27 02:10:15;;;;;;;1999.90;999.90;;;;;;;23.22;50.71;95004.34;4993450;28;20030;-69
2022/06/27 02:12:41;;;;;;;1999.90;999.90;;;;;;;23.21;50.69;95004.75;4993034;28;20026;-69
2022/06/27 02:15:07;;;;;;;1999.90;999.90;;;;;;;23.38;50.87;95011.31;4990037;28;20121;-69
2022/06/27 02:17:32;;;;;;;1999.90;999.90;;;;;;;23.09;51.04;94995.06;4993182;28;20026;-70
2022/06/27 02:19:59;;;;;;;1999.90;999.90;;;;;;;23.02;51.31;94979.53;4991359;28;20022;-70
2022/06/27 02:22:25;;;;;;;1999.90;999.90;;;;;;;22.95;51.75;95014.03;5004238;28;20029;-69
2022/06/27 02:24:50;;;;;;;1999.90;999.90;;;;;;;22.54;53.21;95019.75;5000363;28;20113;-69
2022/06/27 02:27:16;;;;;;;1999.90;999.90;;;;;;;20.26;59.75;95118.72;4990871;28;20124;-69
2022/06/27 02:29:42;;;;;;;1999.90;999.90;;;;;;;20.19;60.21;95078.91;4991925;28;20018;-69
2022/06/27 02:32:08;;;;;;;1999.90;999.90;;;;;;;20.11;60.73;95117.75;4990525;28;20034;-69
2022/06/27 02:34:35;;;;;;;1999.90;999.90;;;;;;;20.74;59.35;95138.69;4990501;28;20034;-69
2022/06/27 02:37:02;;;;;;;1999.90;999.90;;;;;;;21.11;58.73;95148.72;4999807;28;20036;-69
2022/06/27 02:39:31;;;;;;;1999.90;999.90;;;;;;;20.53;59.69;95143.81;4989669;28;20031;-69
2022/06/27 02:41:59;;;;;;;1999.90;999.90;;;;;;;21.54;57.62;95103.13;4990266;28;20081;-70
2022/06/27 02:44:26;;;;;;;1999.90;999.90;;;;;;;21.75;56.12;95141.22;4990360;28;20515;-70
2022/06/27 02:46:52;;;;;;;1999.90;999.90;;;;;;;21.32;57.92;95152.81;4990559;28;20113;-69
2022/06/27 02:49:19;;;;;;;1999.90;999.90;;;;;;;21.89;55.91;95109.97;4990347;28;20660;-70
2022/06/27 02:52:06;;;;;;;1999.90;999.90;;;;;;;21.62;57.07;95137.25;4990281;28;20035;-70
2022/06/27 02:54:44;;;;;;;1999.90;999.90;;;;;;;21.88;55.95;95130.84;4990147;28;20265;-70
2022/06/27 02:57:30;;;;;;;1999.90;999.90;;;;;;;21.10;58.07;95163.41;4991676;28;20056;-70
2022/06/27 03:00:00;;;;;;;1999.90;999.90;;;;;;;21.34;57.56;95180.28;4991201;28;20026;-71
2022/06/27 03:02:28;;;;;;;1999.90;999.90;;;;;;;21.03;58.52;95163.31;4989259;28;20055;-70
2022/06/27 03:04:55;;;;;;;1999.90;999.90;;;;;;;21.11;58.86;95193.94;4990862;28;20041;-70
2022/06/27 03:07:20;;;;;;;1999.90;999.90;;;;;;;21.10;58.56;95168.81;4998555;28;20665;-71
2022/06/27 03:09:46;;;;;;;1999.90;999.90;;;;;;;21.46;57.81;95169.19;5003484;28;20034;-72
2022/06/27 03:12:13;;;;;;;1999.90;999.90;;;;;;;21.22;58.34;95165.84;4991502;28;20120;-73
2022/06/27 03:14:38;;;;;;;1999.90;999.90;;;;;;;21.43;57.99;95178.03;4990163;28;20037;-71
2022/06/27 03:17:05;;;;;;;1999.90;999.90;;;;;;;21.51;57.12;95139.84;4990800;28;20061;-70
2022/06/27 03:19:30;;;;;;;1999.90;999.90;;;;;;;21.79;56.22;95139.28;4991546;28;20026;-71
2022/06/27 03:21:56;;;;;;;1999.90;999.90;;;;;;;22.18;55.49;95154.31;4993842;28;20103;-71
2022/06/27 03:24:21;;;;;;;1999.90;999.90;;;;;;;22.14;55.57;95165.09;4992532;28;20030;-72
2022/06/27 03:26:47;;;;;;;1999.90;999.90;;;;;;;22.55;54.25;95167.66;4989210;28;20851;-71
2022/06/27 03:29:12;;;;;;;1999.90;999.90;;;;;;;22.73;53.69;95173.19;4991139;28;20515;-70
2022/06/27 03:31:37;;;;;;;1999.90;999.90;;;;;;;22.57;53.92;95160.72;4990074;28;20034;-71
2022/06/27 03:34:03;;;;;;;1999.90;999.90;;;;;;;22.40;54.63;95179.59;4990199;28;20438;-72
2022/06/27 03:36:28;;;;;;;1999.90;999.90;;;;;;;21.62;56.92;95172.44;4990937;28;20100;-72
2022/06/27 03:38:53;;;;;;;1999.90;999.90;;;;;;;21.52;57.31;95194.75;5003124;28;20137;-71
2022/06/27 03:41:19;;;;;;;1999.90;999.90;;;;;;;21.59;57.07;95177.81;4987039;28;20048;-71
2022/06/27 03:43:44;;;;;;;1999.90;999.90;;;;;;;21.56;57.33;95179.34;4990657;28;20116;-72
2022/06/27 03:46:10;;;;;;;1999.90;999.90;;;;;;;21.47;57.47;95168.03;4990066;28;20146;-71
2022/06/27 03:51:20;;;;;;;1999.90;999.90;;;;;;;21.92;56.28;95196.66;4990630;28;20046;-72
2022/06/27 03:53:45;;;;;;;1999.90;999.90;;;;;;;22.08;55.58;95182.06;5003762;28;20394;-72
2022/06/27 03:56:10;;;;;;;1999.90;999.90;;;;;;;22.49;54.76;95191.66;4989427;28;20395;-71
2022/06/27 03:58:35;;;;;;;1999.90;999.90;;;;;;;22.79;53.93;95185.22;4989313;28;20041;-72
2022/06/27 04:01:03;;;;;;;1999.90;999.90;;;;;;;22.63;53.78;95180.09;4988694;28;20061;-72
2022/06/27 04:03:28;;;;;;;1999.90;999.90;;;;;;;22.79;53.68;95187.91;4988473;28;20054;-72
2022/06/27 04:05:54;;;;;;;1999.90;999.90;;;;;;;22.54;54.01;95183.16;4989760;28;20637;-72
2022/06/27 04:08:19;;;;;;;1999.90;999.90;;;;;;;23.09;53.04;95184.97;4989766;28;20101;-71
2022/06/27 04:10:44;;;;;;;1999.90;999.90;;;;;;;23.12;52.48;95162.47;4987930;28;20039;-71
2022/06/27 04:13:10;;;;;;;1999.90;999.90;;;;;;;23.41;52.12;95168.75;4990177;28;20474;-74
2022/06/27 04:15:35;;;;;;;1999.90;999.90;;;;;;;23.64;51.68;95173.06;4988249;28;20076;-72
2022/06/27 04:18:01;;;;;;;1999.90;999.90;;;;;;;23.82;51.33;95177.34;4991140;28;20120;-71
2022/06/27 04:20:26;;;;;;;1999.90;999.90;;;;;;;24.01;50.95;95187.06;4988315;28;20022;-72
2022/06/27 04:22:51;;;;;;;1999.90;999.90;;;;;;;23.79;50.71;95131.16;4996848;28;20074;-71
2022/06/27 04:25:17;;;;;;;1999.90;999.90;;;;;;;24.50;50.01;95201.75;4989514;28;20078;-69
2022/06/27 04:27:42;;;;;;;1999.90;999.90;;;;;;;24.76;49.56;95211.41;4976486;28;20478;-70
2022/06/27 04:30:09;;;;;;;1999.90;999.90;;;;;;;25.03;48.88;95203.56;4989614;28;20023;-70
2022/06/27 04:32:34;;;;;;;1999.90;999.90;;;;;;;25.30;48.48;95206.56;4990286;28;20019;-70
2022/06/27 04:35:01;;;;;;;1999.90;999.90;;;;;;;25.23;48.13;95145.91;4986129;28;20491;-70
2022/06/27 04:37:27;;;;;;;1999.90;999.90;;;;;;;25.93;47.23;95204.59;4992498;28;20025;-70
2022/06/27 04:39:52;;;;;;;1999.90;999.90;;;;;;;26.12;46.18;95186.94;5001250;28;20033;-69
2022/06/27 04:42:19;;;;;;;1999.90;999.90;;;;;;;26.05;45.79;95178.84;4988373;28;20136;-69
2022/06/27 04:44:45;;;;;;;1999.90;999.90;;;;;;;26.32;45.28;95187.16;4988392;28;20034;-69
2022/06/27 04:47:12;;;;;;;1999.90;999.90;;;;;;;26.53;44.79;95193.59;4988412;28;20037;-68
2022/06/27 04:49:38;;;;;;;1999.90;999.90;;;;;;;26.87;44.23;95205.31;4988299;28;20026;-69
2022/06/27 04:52:06;;;;;;;1999.90;999.90;;;;;;;26.86;43.82;95217.38;4988499;28;20026;-70
2022/06/27 04:54:32;;;;;;;1999.90;999.90;;;;;;;27.04;43.10;95191.84;4995470;28;20125;-69
2022/06/27 04:56:57;;;;;;;1999.90;999.90;;;;;;;27.26;43.21;95184.19;4988824;28;20101;-70
2022/06/27 04:59:23;;;;;;;1999.90;999.90;;;;;;;27.50;43.06;95187.78;4987730;28;20026;-70
2022/06/27 05:01:53;;;;;;;1999.90;999.90;;;;;;;25.66;45.20;95207.13;4987933;28;20082;-70
2022/06/27 05:04:22;;;;;;;1999.90;999.90;;;;;;;26.47;44.32;95204.19;4988941;28;20089;-69
2022/06/27 05:06:48;;;;;;;1999.90;999.90;;;;;;;26.86;43.50;95187.38;4989481;28;20030;-69
2022/06/27 05:09:14;;;;;;;1999.90;999.90;;;;;;;27.11;43.54;95180.88;4987956;28;20023;-70
2022/06/27 05:11:41;;;;;;;1999.90;999.90;;;;;;;27.59;42.75;95216.13;4988822;28;20026;-69
2022/06/27 05:14:07;;;;;;;1999.90;999.90;;;;;;;27.72;42.13;95203.47;4987494;28;20030;-69
2022/06/27 05:16:32;;;;;;;1999.90;999.90;;;;;;;27.95;41.81;95223.84;4986491;28;20080;-68
2022/06/27 05:18:58;;;;;;;1999.90;999.90;;;;;;;27.88;41.47;95223.91;4992282;28;20463;-69
2022/06/27 05:21:23;;;;;;;1999.90;999.90;;;;;;;28.09;41.33;95222.81;4992351;28;20038;-70
2022/06/27 05:23:50;;;;;;;1999.90;999.90;;;;;;;28.05;41.47;95211.97;4991862;28;20085;-68
2022/06/27 05:26:17;;;;;;;1999.90;999.90;;;;;;;28.25;40.85;95220.19;4992426;28;20019;-70
2022/06/27 05:28:43;;;;;;;1999.90;999.90;;;;;;;28.30;40.45;95208.78;4988617;28;20466;-69
2022/06/27 05:31:09;;;;;;;1999.90;999.90;;;;;;;27.44;41.46;95210.09;4991592;28;20102;-68
2022/06/27 05:33:35;;;;;;;1999.90;999.90;;;;;;;27.56;41.42;95216.16;5038668;22;20050;-73
2022/06/27 05:36:01;;;;;;;1999.90;999.90;;;;;;;26.61;43.37;95214.16;5012068;28;20095;-73
2022/06/27 05:38:26;;;;;;;1999.90;999.90;;;;;;;27.06;42.82;95223.00;5011292;28;20345;-74
2022/06/27 05:40:51;;;;;;;1999.90;999.90;;;;;;;26.78;43.12;95221.41;5012037;28;20084;-73
2022/06/27 05:43:17;;;;;;;1999.90;999.90;;;;;;;27.51;42.00;95225.59;5011332;28;20537;-73
2022/06/27 05:45:42;;;;;;;1999.90;999.90;;;;;;;27.83;42.31;95230.63;5007719;28;20057;-72
2022/06/27 05:48:08;;;;;;;1999.90;999.90;;;;;;;28.04;42.05;95228.75;5011818;28;20018;-74
2022/06/27 05:50:34;;;;;;;1999.90;999.90;;;;;;;28.16;41.51;95223.50;5011444;28;20061;-73
2022/06/27 05:53:01;;;;;;;1999.90;999.90;;;;;;;28.31;41.23;95242.41;5013712;28;20064;-73
2022/06/27 05:55:28;;;;;;;1999.90;999.90;;;;;;;28.32;40.81;95222.06;5019604;28;20474;-72
2022/06/27 05:57:54;;;;;;;1999.90;999.90;;;;;;;28.45;40.40;95231.22;5011316;28;20050;-73
2022/06/27 06:00:21;;;;;;;1999.90;999.90;;;;;;;28.40;40.26;95224.28;5008994;28;20034;-75
2022/06/27 06:02:47;;;;;;;1999.90;999.90;;;;;;;28.58;40.67;95225.94;5010999;28;20026;-73
2022/06/27 06:05:14;;;;;;;1999.90;999.90;;;;;;;28.67;40.43;95209.75;5010493;28;20109;-72
2022/06/27 06:07:39;;;;;;;1999.90;999.90;;;;;;;28.73;39.76;95208.06;5011203;28;20030;-73
2022/06/27 06:10:05;;;;;;;1999.90;999.90;;;;;;;28.81;39.79;95223.16;5009902;28;20030;-73
2022/06/27 06:12:32;;;;;;;1999.90;999.90;;;;;;;28.79;40.07;95217.31;5010283;28;20160;-72
2022/06/27 06:15:04;;;;;;;1999.90;999.90;;;;;;;28.82;39.77;95204.75;5012074;28;20026;-72
2022/06/27 06:17:34;;;;;;;1999.90;999.90;;;;;;;28.85;39.82;95199.22;5012482;28;20033;-72
2022/06/27 06:19:59;;;;;;;1999.90;999.90;;;;;;;29.00;39.97;95216.16;5008672;28;20474;-74
2022/06/27 06:22:25;;;;;;;1999.90;999.90;;;;;;;28.99;39.64;95195.47;5011447;28;20037;-75
2022/06/27 06:24:51;;;;;;;1999.90;999.90;;;;;;;29.14;39.62;95217.84;5009307;28;20030;-74
2022/06/27 06:27:17;;;;;;;1999.90;999.90;;;;;;;28.97;39.08;95201.38;5011845;28;20032;-74
2022/06/27 06:29:43;;;;;;;1999.90;999.90;;;;;;;29.01;39.65;95209.50;5008573;28;20033;-74
2022/06/27 06:32:09;;;;;;;1999.90;999.90;;;;;;;29.04;39.42;95221.59;5009790;28;20358;-75
2022/06/27 06:34:35;;;;;;;1999.90;999.90;;;;;;;29.10;39.29;95228.09;5009922;28;20106;-73
2022/06/27 06:37:01;;;;;;;1999.90;999.90;;;;;;;29.17;39.43;95225.22;4992840;28;20566;-72
2022/06/27 06:39:27;;;;;;;1999.90;999.90;;;;;;;29.23;39.06;95218.06;5007433;28;20033;-72
2022/06/27 06:41:53;;;;;;;1999.90;999.90;;;;;;;29.23;38.58;95205.13;5011708;28;20028;-72
2022/06/27 06:44:19;;;;;;;1999.90;999.90;;;;;;;29.20;38.58;95203.22;5009619;28;20030;-72
2022/06/27 06:46:45;;;;;;;1999.90;999.90;;;;;;;28.64;39.21;95191.41;5007125;28;21724;-73
2022/06/27 06:49:10;;;;;;;1999.90;999.90;;;;;;;28.49;40.63;95197.16;5007356;28;20073;-71
2022/06/27 06:51:39;;;;;;;1999.90;999.90;;;;;;;28.75;40.39;95190.00;5015039;28;20506;-70
2022/06/27 06:54:06;;;;;;;1999.90;999.90;;;;;;;28.87;40.34;95187.84;5016193;28;20028;-72
2022/06/27 06:56:32;;;;;;;1999.90;999.90;;;;;;;28.71;39.93;95158.41;5011396;28;20030;-69
2022/06/27 06:58:59;;;;;;;1999.90;999.90;;;;;;;29.00;39.66;95194.25;5001269;28;20045;-69
2022/06/27 07:01:25;;;;;;;1999.90;999.90;;;;;;;29.05;40.16;95191.03;5010568;28;20064;-69
2022/06/27 07:03:51;;;;;;;1999.90;999.90;;;;;;;29.27;39.01;95192.13;5010948;28;20026;-69
2022/06/27 07:06:17;;;;;;;1999.90;999.90;;;;;;;29.25;38.77;95189.03;5011815;28;20065;-67
2022/06/27 07:08:44;;;;;;;1999.90;999.90;;;;;;;29.29;39.25;95177.25;5011335;28;20033;-67
2022/06/27 07:11:10;;;;;;;1999.90;999.90;;;;;;;29.31;39.33;95183.84;5008773;28;20037;-67
2022/06/27 07:13:38;;;;;;;1999.90;999.90;;;;;;;29.32;38.77;95185.38;5006576;28;20498;-67
2022/06/27 07:16:05;;;;;;;1999.90;999.90;;;;;;;29.34;39.28;95184.97;5009482;28;20026;-67
2022/06/27 07:18:31;;;;;;;1999.90;999.90;;;;;;;29.26;39.13;95184.34;5011673;28;20029;-67
2022/06/27 07:20:57;;;;;;;1999.90;999.90;;;;;;;29.42;38.89;95169.91;5008653;28;20026;-68
2022/06/27 07:23:22;;;;;;;1999.90;999.90;;;;;;;29.49;38.88;95164.28;5009389;28;20033;-68
2022/06/27 07:25:47;;;;;;;1999.90;999.90;;;;;;;29.67;38.97;95185.81;5008793;28;20064;-68
2022/06/27 07:28:13;;;;;;;1999.90;999.90;;;;;;;29.82;38.42;95175.28;5010870;28;20045;-67
2022/06/27 07:30:41;;;;;;;1999.90;999.90;;;;;;;29.70;38.45;95180.25;5009545;28;20387;-69
2022/06/27 07:33:07;;;;;;;1999.90;999.90;;;;;;;29.61;38.67;95165.59;5007475;28;20486;-68
2022/06/27 07:35:33;;;;;;;1999.90;999.90;;;;;;;29.70;38.06;95184.97;5011406;28;20030;-68
2022/06/27 07:38:00;;;;;;;1999.90;999.90;;;;;;;29.78;38.15;95180.84;5010667;28;20033;-68
2022/06/27 07:40:25;;;;;;;1999.90;999.90;;;;;;;29.88;38.55;95182.56;5023684;28;20432;-68
2022/06/27 07:42:53;;;;;;;1999.90;999.90;;;;;;;29.93;37.73;95190.28;5020319;28;20065;-71
2022/06/27 07:45:20;;;;;;;1999.90;999.90;;;;;;;29.82;37.43;95178.03;5008760;28;20632;-71
2022/06/27 07:47:48;;;;;;;1999.90;999.90;;;;;;;28.83;38.98;95190.66;5010100;28;20034;-71
2022/06/27 07:53:19;;;;;;;1999.90;999.90;;;;;;;29.43;39.08;95182.41;5010614;28;20096;-71
2022/06/27 07:55:45;;;;;;;1999.90;999.90;;;;;;;29.84;38.17;95190.13;5007431;28;20483;-71
2022/06/27 07:58:14;;;;;;;1999.90;999.90;;;;;;;29.83;37.68;95174.84;5008168;28;20045;-69
2022/06/27 08:00:41;;;;;;;1999.90;999.90;;;;;;;29.98;38.17;95189.00;5009186;28;20295;-70
2022/06/27 08:05:51;;;;;;;1999.90;999.90;;;;;;;30.30;37.54;95180.00;4994644;28;20068;-70
2022/06/27 08:08:16;;;;;;;1999.90;999.90;;;;;;;30.50;37.28;95191.63;5009094;28;20433;-73
2022/06/27 08:10:42;;;;;;;1999.90;999.90;;;;;;;30.53;36.92;95168.81;5008313;28;20360;-72
2022/06/27 08:13:08;;;;;;;1999.90;999.90;;;;;;;30.61;36.92;95174.09;5005717;28;20048;-73
2022/06/27 08:15:34;;;;;;;1999.90;999.90;;;;;;;30.49;36.80;95195.56;5008239;28;20414;-74
2022/06/27 08:18:00;;;;;;;1999.90;999.90;;;;;;;29.26;38.54;95182.38;5010853;28;20060;-71
2022/06/27 08:20:26;;;;;;;1999.90;999.90;;;;;;;29.74;38.02;95185.66;5009378;28;20025;-71
2022/06/27 08:22:51;;;;;;;1999.90;999.90;;;;;;;29.78;37.91;95186.34;5011267;28;20073;-69
2022/06/27 08:25:17;;;;;;;1999.90;999.90;;;;;;;29.46;38.99;95176.06;5007564;28;20034;-70
2022/06/27 08:27:43;;;;;;;1999.90;999.90;;;;;;;29.56;38.37;95164.13;4990084;28;20089;-69
2022/06/27 08:30:09;;;;;;;1999.90;999.90;;;;;;;30.02;37.72;95182.22;5005942;28;20034;-69
2022/06/27 08:32:35;;;;;;;1999.90;999.90;;;;;;;30.34;36.61;95180.69;5009626;28;20037;-69
2022/06/27 08:35:00;;;;;;;1999.90;999.90;;;;;;;30.49;36.67;95175.59;5007686;28;20045;-71
2022/06/27 08:37:26;;;;;;;1999.90;999.90;;;;;;;30.46;36.26;95177.25;5005491;28;20023;-70
2022/06/27 08:39:52;;;;;;;1999.90;999.90;;;;;;;30.68;36.04;95166.47;4995390;28;20149;-68
2022/06/27 08:42:19;;;;;;;1999.90;999.90;;;;;;;30.93;36.13;95174.03;5009252;28;20061;-68
2022/06/27 08:44:45;;;;;;;1999.90;999.90;;;;;;;31.02;35.85;95181.66;5008509;28;20072;-68
2022/06/27 08:47:11;;;;;;;1999.90;999.90;;;;;;;30.98;35.53;95181.75;5008106;28;20049;-69
2022/06/27 08:49:37;;;;;;;1999.90;999.90;;;;;;;31.12;35.31;95182.53;5010152;28;20018;-69
2022/06/27 08:52:03;;;;;;;1999.90;999.90;;;;;;;31.18;35.23;95178.81;5006054;28;20042;-68
2022/06/27 08:54:29;;;;;;;1999.90;999.90;;;;;;;30.02;36.48;95189.69;5007281;28;20058;-68
2022/06/27 08:56:54;;;;;;;1999.90;999.90;;;;;;;29.68;37.24;95190.09;5012274;28;20057;-67
2022/06/27 08:59:20;;;;;;;1999.90;999.90;;;;;;;29.59;37.31;95182.47;5008480;28;20037;-69
2022/06/27 09:01:45;;;;;;;1999.90;999.90;;;;;;;30.37;35.71;95182.56;5007835;28;20144;-68
2022/06/27 09:04:11;;;;;;;1999.90;999.90;;;;;;;30.86;34.85;95176.19;5008168;28;20038;-68
2022/06/27 09:06:43;;;;;;;1999.90;999.90;;;;;;;31.02;34.50;95182.41;5010245;28;20048;-67
2022/06/27 09:09:09;;;;;;;1999.90;999.90;;;;;;;30.86;34.88;95182.47;5007453;28;20033;-68
2022/06/27 09:11:42;;;;;;;1999.90;999.90;;;;;;;31.19;35.15;95176.84;5008822;28;20030;-67
2022/06/27 09:14:33;;;;;;;1999.90;999.90;;;;;;;31.28;34.82;95179.75;5008283;28;20446;-67
2022/06/27 09:17:00;;;;;;;1999.90;999.90;;;;;;;31.62;34.95;95173.59;5007603;28;20030;-68
2022/06/27 09:19:46;;;;;;;1999.90;999.90;;;;;;;31.74;34.33;95174.81;5007642;28;20030;-68
2022/06/27 09:22:16;;;;;;;1999.90;999.90;;;;;;;31.18;34.13;95153.31;5006982;28;20033;-68
2022/06/27 09:25:12;;;;;;;1999.90;999.90;;;;;;;31.38;34.62;95170.41;5007556;28;20042;-68
2022/06/27 09:27:41;;;;;;;1999.90;999.90;;;;;;;31.27;35.05;95162.50;5007810;28;20446;-68
2022/06/27 09:30:28;;;;;;;1999.90;999.90;;;;;;;30.78;35.80;95162.69;5007689;28;20435;-67
2022/06/27 09:32:59;;;;;;;1999.90;999.90;;;;;;;31.39;35.32;95160.97;4990322;28;20034;-68
2022/06/27 09:35:32;;;;;;;1999.90;999.90;;;;;;;31.81;34.31;95163.63;4989970;28;20379;-68
2022/06/27 09:38:01;;;;;;;1999.90;999.90;;;;;;;30.98;34.32;95142.53;5009809;28;20152;-68
2022/06/27 09:40:30;;;;;;;1999.90;999.90;;;;;;;31.04;34.32;95160.00;5010431;28;20397;-68
2022/06/27 09:42:56;;;;;;;1999.90;999.90;;;;;;;30.72;35.17;95158.16;5009118;28;20445;-68
2022/06/27 09:45:23;;;;;;;1999.90;999.90;;;;;;;31.01;34.54;95145.13;5007806;28;20478;-68
2022/06/27 09:47:55;;;;;;;1999.90;999.90;;;;;;;31.07;34.35;95148.16;5009800;28;20482;-68
2022/06/27 09:50:22;;;;;;;1999.90;999.90;;;;;;;30.36;36.04;95144.59;5007449;28;20030;-69
2022/06/27 09:52:49;;;;;;;1999.90;999.90;;;;;;;30.62;35.76;95150.97;5007724;28;20069;-68
2022/06/27 09:55:14;;;;;;;1999.90;999.90;;;;;;;30.58;36.39;95136.56;5009292;28;20057;-68
2022/06/27 09:57:41;;;;;;;1999.90;999.90;;;;;;;31.31;34.39;95137.63;5012633;28;20429;-68
2022/06/27 10:00:08;;;;;;;1999.90;999.90;;;;;;;30.57;34.67;95135.78;5006320;28;20070;-69
2022/06/27 10:02:34;;;;;;;1999.90;999.90;;;;;;;30.67;33.67;95150.44;5008267;28;20034;-68
2022/06/27 10:05:00;;;;;;;1999.90;999.90;;;;;;;31.33;34.41;95145.47;5011886;28;20030;-68
2022/06/27 10:07:26;;;;;;;1999.90;999.90;;;;;;;29.35;38.91;95148.91;5013095;28;20049;-67
2022/06/27 10:09:52;;;;;;;1999.90;999.90;;;;;;;29.96;37.77;95147.53;5008984;28;20431;-68
2022/06/27 10:12:32;;;;;;;1999.90;999.90;;;;;;;30.17;38.17;95151.75;5022637;28;20034;-68
2022/06/27 10:15:09;;;;;;;1999.90;999.90;;;;;;;31.03;36.38;95145.50;5010834;28;20064;-68
2022/06/27 10:17:41;;;;;;;1999.90;999.90;;;;;;;31.03;36.59;95139.22;5010931;28;20596;-68
2022/06/27 10:20:19;;;;;;;1999.90;999.90;;;;;;;31.48;35.81;95146.53;5010372;28;20049;-68
2022/06/27 10:23:05;;;;;;;1999.90;999.90;;;;;;;31.55;35.26;95140.84;5008451;28;20033;-68
2022/06/27 10:25:30;;;;;;;1999.90;999.90;;;;;;;31.63;34.93;95141.38;5008670;28;21066;-68
2022/06/27 10:28:12;;;;;;;1999.90;999.90;;;;;;;30.89;36.41;95151.38;5012034;28;20101;-68
2022/06/27 10:30:39;;;;;;;1999.90;999.90;;;;;;;31.35;35.73;95143.81;5009586;28;20366;-71
2022/06/27 10:33:23;;;;;;;1999.90;999.90;;;;;;;31.49;35.29;95146.13;5011644;28;20092;-67
2022/06/27 10:35:57;;;;;;;1999.90;999.90;;;;;;;31.67;35.12;95147.53;5011856;28;20026;-67
2022/06/27 10:38:27;;;;;;;1999.90;999.90;;;;;;;31.86;34.14;95143.81;5011324;28;20429;-67
2022/06/27 10:40:54;;;;;;;1999.90;999.90;;;;;;;31.27;35.12;95147.97;5010121;28;20502;-67
2022/06/27 10:43:41;;;;;;;1999.90;999.90;;;;;;;31.61;35.82;95157.53;5009723;28;20124;-68
2022/06/27 10:46:09;;;;;;;1999.90;999.90;;;;;;;31.77;35.23;95140.94;5009613;28;20030;-67
2022/06/27 10:48:54;;;;;;;1999.90;999.90;;;;;;;30.64;37.77;95154.03;5012655;28;20478;-67
2022/06/27 10:51:31;;;;;;;1999.90;999.90;;;;;;;30.31;39.00;95153.34;5009551;28;20155;-68
2022/06/27 10:54:05;;;;;;;1999.90;999.90;;;;;;;30.69;38.45;95151.53;5011190;28;20061;-68
2022/06/27 10:56:31;;;;;;;1999.90;999.90;;;;;;;31.43;37.42;95155.34;5016985;28;20030;-70
2022/06/27 10:58:57;;;;;;;1999.90;999.90;;;;;;;31.53;37.44;95149.53;5016760;28;20033;-69
2022/06/27 11:01:23;;;;;;;1999.90;999.90;;;;;;;31.75;36.00;95144.13;5009417;28;20018;-69
2022/06/27 11:03:49;;;;;;;1999.90;999.90;;;;;;;31.01;37.16;95155.38;5010677;28;20073;-70